Time;durP1;ratioP1;P1;durP2;ratioP2;P2;SDS_P1;SDS_P2;PMS_P1;PMS_P2;Temp;Humidity;BMP_temperature;BMP_pressure;BME280_temperature;BME280_humidity;BME280_pressure;Samples;Min_cycle;Max_cycle;Signal;HPM_P1;HPM_P2
2022/05/21 00:02:15;;;;;;;7.88;6.05;;;15.50;71.80;;;;;;4893925;28;97602;-57
2022/05/21 00:04:45;;;;;;;6.00;5.37;;;15.50;71.70;;;;;;4907020;28;95875;-57
2022/05/21 00:07:17;;;;;;;8.55;5.97;;;15.50;71.60;;;;;;4901074;28;95424;-57
2022/05/21 00:09:50;;;;;;;;;;;15.40;71.70;;;;;;4905301;28;96099;-58
2022/05/21 00:12:22;;;;;;;6.28;5.55;;;15.40;71.60;;;;;;4904877;28;96244;-57
2022/05/21 00:14:53;;;;;;;5.93;5.20;;;15.50;71.80;;;;;;4905934;28;97193;-58
2022/05/21 00:17:24;;;;;;;7.72;6.15;;;15.50;71.80;;;;;;4895703;28;95978;-57
2022/05/21 00:19:55;;;;;;;8.85;6.35;;;15.50;71.70;;;;;;4908277;28;96146;-58
2022/05/21 00:22:27;;;;;;;6.03;5.35;;;15.50;71.80;;;;;;4910228;28;95799;-57
2022/05/21 00:24:58;;;;;;;6.85;5.53;;;15.50;71.70;;;;;;4912088;28;95607;-58
2022/05/21 00:27:29;;;;;;;8.05;5.85;;;15.50;71.80;;;;;;4908478;28;95662;-57
2022/05/21 00:30:00;;;;;;;5.35;4.60;;;15.50;71.70;;;;;;4899694;28;95827;-55
2022/05/21 00:32:31;;;;;;;7.93;5.75;;;15.50;71.80;;;;;;4907383;28;96085;-53
2022/05/21 00:35:03;;;;;;;6.60;5.63;;;15.60;72.40;;;;;;4911156;28;95835;-51
2022/05/21 00:37:34;;;;;;;6.28;5.18;;;15.60;72.60;;;;;;4911274;28;95622;-53
2022/05/21 00:40:06;;;;;;;5.57;4.93;;;15.60;72.60;;;;;;4911217;28;96740;-55
2022/05/21 00:42:44;;;;;;;5.20;4.38;;;15.60;72.70;;;;;;4909055;28;95460;-50
2022/05/21 00:45:15;;;;;;;8.95;5.38;;;15.60;72.70;;;;;;4909125;28;95285;-55
2022/05/21 00:47:46;;;;;;;7.87;5.63;;;15.60;72.70;;;;;;4911097;28;95432;-53
2022/05/21 00:50:21;;;;;;;6.72;4.43;;;15.60;72.70;;;;;;4911424;28;95869;-55
2022/05/21 00:52:52;;;;;;;6.22;5.10;;;15.60;72.80;;;;;;4912576;28;96327;-52
2022/05/21 00:55:32;;;;;;;4.97;4.43;;;15.60;72.80;;;;;;4913133;28;95757;-53
2022/05/21 01:00:56;;;;;;;5.93;5.30;;;15.60;72.90;;;;;;4900699;28;96381;-50
2022/05/21 01:03:29;;;;;;;5.93;4.93;;;15.60;72.80;;;;;;4911168;28;95854;-55
2022/05/21 01:06:04;;;;;;;6.97;4.55;;;15.60;72.90;;;;;;4909891;28;95811;-52
2022/05/21 01:08:38;;;;;;;5.28;4.78;;;15.60;69.60;;;;;;4911227;28;95757;-52
2022/05/21 01:11:15;;;;;;;5.90;5.00;;;15.60;72.90;;;;;;4911478;28;96486;-51
2022/05/21 01:13:50;;;;;;;5.75;4.68;;;15.60;72.90;;;;;;4911029;28;96030;-49
2022/05/21 01:16:21;;;;;;;6.97;4.80;;;15.60;72.90;;;;;;4898999;28;97773;-48
2022/05/21 01:18:52;;;;;;;5.63;5.00;;;15.60;72.90;;;;;;4909808;28;98602;-49
2022/05/21 01:21:24;;;;;;;4.97;4.28;;;15.60;72.90;;;;;;4911260;28;96689;-48
2022/05/21 01:23:55;;;;;;;6.38;4.68;;;15.60;73.00;;;;;;4908083;28;98245;-52
2022/05/21 01:26:27;;;;;;;5.90;4.97;;;15.60;73.00;;;;;;4919640;28;96603;-48
2022/05/21 01:29:00;;;;;;;4.72;4.07;;;15.70;73.10;;;;;;4917982;28;95384;-48
2022/05/21 01:31:29;;;;;;;;;;;15.70;73.20;;;;;;4905995;28;96445;-50
2022/05/21 01:33:59;;;;;;;5.50;4.70;;;15.70;73.10;;;;;;4907643;28;95749;-48
2022/05/21 01:36:30;;;;;;;4.43;4.03;;;15.70;73.70;;;;;;4906881;28;95813;-52
2022/05/21 01:39:01;;;;;;;5.47;4.22;;;15.70;73.10;;;;;;4900391;28;95799;-50
2022/05/21 01:41:31;;;;;;;4.85;4.30;;;15.70;73.20;;;;;;4906216;28;96045;-52
2022/05/21 01:47:01;;;;;;;4.72;4.28;;;15.80;73.10;;;;;;4910780;28;95839;-54
2022/05/21 01:49:31;;;;;;;5.82;4.20;;;15.80;73.00;;;;;;4913817;28;95864;-51
2022/05/21 01:52:03;;;;;;;;;;;15.80;73.00;;;;;;4914508;28;97466;-53
2022/05/21 01:54:36;;;;;;;7.63;4.40;;;15.80;73.00;;;;;;4907279;28;96296;-52
2022/05/21 01:57:09;;;;;;;7.05;4.30;;;15.80;73.10;;;;;;4915852;28;95677;-51
2022/05/21 01:59:40;;;;;;;4.85;3.85;;;15.80;73.10;;;;;;4917799;28;95645;-52
2022/05/21 02:02:11;;;;;;;6.05;4.60;;;15.90;73.10;;;;;;4907961;28;95993;-54
2022/05/21 02:04:41;;;;;;;5.05;4.20;;;15.90;73.20;;;;;;4916833;28;95692;-51
2022/05/21 02:07:14;;;;;;;4.63;4.10;;;15.90;73.10;;;;;;4917349;28;95954;-50
2022/05/21 02:09:46;;;;;;;5.15;4.47;;;15.90;73.10;;;;;;4919407;28;95255;-51
2022/05/21 02:12:18;;;;;;;5.05;3.88;;;15.90;73.10;;;;;;4915597;28;95954;-53
2022/05/21 02:14:50;;;;;;;5.35;4.60;;;16.00;73.10;;;;;;4915455;28;95761;-50
2022/05/21 02:17:21;;;;;;;;;;;16.00;73.10;;;;;;4901484;28;95751;-54
2022/05/21 02:19:53;;;;;;;;;;;16.00;73.10;;;;;;4915882;28;95732;-54
2022/05/21 02:22:24;;;;;;;5.93;4.78;;;16.00;73.10;;;;;;4914105;28;96010;-56
2022/05/21 02:24:55;;;;;;;6.55;5.40;;;16.10;73.20;;;;;;4911747;28;95528;-56
2022/05/21 02:27:26;;;;;;;;;;;16.10;73.20;;;;;;4912295;28;95811;-55
2022/05/21 02:29:58;;;;;;;6.85;5.63;;;16.20;73.30;;;;;;4914584;28;95873;-54
2022/05/21 02:32:28;;;;;;;;;;;16.20;73.30;;;;;;4910243;28;98220;-55
2022/05/21 02:34:59;;;;;;;7.17;5.63;;;16.20;73.30;;;;;;4914425;28;96057;-56
2022/05/21 02:40:18;;;;;;;8.02;5.85;;;16.30;73.30;;;;;;4914267;28;95754;-55
2022/05/21 02:42:49;;;;;;;8.75;6.07;;;16.30;73.30;;;;;;4913737;28;96208;-52
2022/05/21 02:45:23;;;;;;;12.40;7.37;;;16.30;73.00;;;;;;4906887;28;95921;-54
2022/05/21 02:47:57;;;;;;;8.95;6.65;;;16.30;73.10;;;;;;4891132;28;95932;-53
2022/05/21 02:50:34;;;;;;;9.75;7.10;;;16.30;73.20;;;;;;4891892;28;95804;-55
2022/05/21 02:53:07;;;;;;;9.00;6.85;;;16.30;73.20;;;;;;4890324;28;95863;-52
2022/05/21 02:55:39;;;;;;;9.50;6.68;;;16.40;73.20;;;;;;4886574;28;95782;-54
2022/05/21 02:58:10;;;;;;;11.23;7.10;;;16.40;73.30;;;;;;4888549;28;95567;-48
2022/05/21 03:00:43;;;;;;;11.90;7.50;;;16.40;73.20;;;;;;4883184;28;95450;-55
2022/05/21 03:03:14;;;;;;;8.23;5.90;;;16.40;73.30;;;;;;4868644;28;96292;-57
2022/05/21 03:05:46;;;;;;;10.13;7.05;;;16.50;73.50;;;;;;4886299;28;95799;-56
2022/05/21 03:11:27;;;;;;;8.70;6.82;;;16.60;73.60;;;;;;4866432;28;96155;-54
2022/05/21 03:13:58;;;;;;;9.48;6.50;;;16.60;73.50;;;;;;4863390;28;96948;-56
2022/05/21 03:16:29;;;;;;;7.90;6.20;;;16.70;73.50;;;;;;4866468;28;98340;-48
2022/05/21 03:19:00;;;;;;;7.07;5.85;;;16.80;73.40;;;;;;4883079;28;95938;-53
2022/05/21 03:21:32;;;;;;;7.82;5.90;;;16.90;73.50;;;;;;4888378;28;95811;-54
2022/05/21 03:24:03;;;;;;;;;;;17.00;73.60;;;;;;4890575;28;96536;-57
2022/05/21 03:26:35;;;;;;;6.28;5.43;;;17.10;73.70;;;;;;4891148;28;95781;-56
2022/05/21 03:29:07;;;;;;;5.90;4.75;;;17.30;73.70;;;;;;4887756;28;96688;-57
2022/05/21 03:31:38;;;;;;;6.18;5.22;;;17.40;73.60;;;;;;4882766;28;95882;-54
2022/05/21 03:34:09;;;;;;;7.07;5.07;;;17.50;73.40;;;;;;4887724;28;96639;-57
2022/05/21 03:36:42;;;;;;;7.22;5.68;;;17.60;73.30;;;;;;4886653;28;95765;-54
2022/05/21 03:39:12;;;;;;;6.07;4.97;;;17.80;73.20;;;;;;4887724;28;96063;-58
2022/05/21 03:41:43;;;;;;;8.35;5.15;;;17.90;73.10;;;;;;4888170;28;95824;-55
2022/05/21 03:44:13;;;;;;;;;;;18.00;72.90;;;;;;4887771;28;95903;-51
2022/05/21 03:46:43;;;;;;;7.88;5.28;;;18.20;72.50;;;;;;4886353;28;96037;-48
2022/05/21 03:49:16;;;;;;;6.57;5.07;;;18.20;71.30;;;;;;4887574;28;95899;-51
2022/05/21 03:51:48;;;;;;;7.70;5.13;;;18.30;68.00;;;;;;4888545;28;95637;-54
2022/05/21 03:54:19;;;;;;;7.35;5.70;;;18.20;71.10;;;;;;4885493;28;96289;-51
2022/05/21 03:56:50;;;;;;;7.55;5.07;;;18.10;71.00;;;;;;4888569;28;95954;-48
2022/05/21 03:59:21;;;;;;;7.47;5.85;;;18.10;71.00;;;;;;4889151;28;96055;-48
2022/05/21 04:01:52;;;;;;;7.72;5.80;;;18.10;70.90;;;;;;4885010;28;98697;-49
2022/05/21 04:04:24;;;;;;;6.70;5.18;;;18.10;70.90;;;;;;4888727;28;96054;-51
2022/05/21 04:06:55;;;;;;;6.22;4.93;;;18.10;70.90;;;;;;4888882;28;95669;-52
2022/05/21 04:09:28;;;;;;;;;;;18.10;70.70;;;;;;4884203;28;95734;-52
2022/05/21 04:12:00;;;;;;;6.82;5.28;;;18.10;70.60;;;;;;4888479;28;95285;-51
2022/05/21 04:14:31;;;;;;;7.63;5.63;;;18.20;70.60;;;;;;4885917;28;95938;-49
2022/05/21 04:17:04;;;;;;;7.80;5.80;;;18.10;70.60;;;;;;4871065;28;96545;-50
2022/05/21 04:19:36;;;;;;;6.53;5.40;;;18.20;70.60;;;;;;4883336;28;95848;-47
2022/05/21 04:22:08;;;;;;;9.15;6.38;;;18.10;70.50;;;;;;4886860;28;96700;-48
2022/05/21 04:24:40;;;;;;;7.40;5.70;;;18.20;70.50;;;;;;4887103;28;96201;-47
2022/05/21 04:27:13;;;;;;;7.90;6.13;;;18.20;70.50;;;;;;4886238;28;96000;-49
2022/05/21 04:29:44;;;;;;;9.43;6.22;;;18.20;70.30;;;;;;4886843;28;95831;-48
2022/05/21 04:32:14;;;;;;;7.35;5.50;;;18.20;70.40;;;;;;4892841;28;95948;-49
2022/05/21 04:34:44;;;;;;;8.25;5.10;;;18.20;70.30;;;;;;4889350;28;96175;-51
2022/05/21 04:37:16;;;;;;;7.13;5.50;;;18.20;70.30;;;;;;4887044;28;96033;-47
2022/05/21 04:39:47;;;;;;;7.88;5.78;;;18.20;70.30;;;;;;4888314;28;95289;-56
2022/05/21 04:42:21;;;;;;;8.95;6.25;;;18.30;70.50;;;;;;4888767;28;96616;-54
2022/05/21 04:44:50;;;;;;;;;;;18.40;70.50;;;;;;4889738;28;95874;-57
2022/05/21 04:47:22;;;;;;;7.93;5.93;;;18.60;70.60;;;;;;4884843;28;96166;-54
2022/05/21 04:49:52;;;;;;;7.28;5.65;;;18.70;70.60;;;;;;4888873;28;95913;-56
2022/05/21 04:52:24;;;;;;;;;;;18.90;70.60;;;;;;4889741;28;95575;-55
2022/05/21 04:54:55;;;;;;;6.47;5.00;;;19.10;70.60;;;;;;4890144;28;96508;-54
2022/05/21 04:57:25;;;;;;;7.82;5.80;;;19.20;70.30;;;;;;4903225;28;96005;-57
2022/05/21 04:59:56;;;;;;;6.38;5.00;;;19.30;70.30;;;;;;4886403;28;95324;-57
2022/05/21 05:02:28;;;;;;;;;;;19.40;70.10;;;;;;4880056;28;98043;-59
2022/05/21 05:04:59;;;;;;;7.05;5.18;;;19.60;70.00;;;;;;4889561;28;96552;-55
2022/05/21 05:07:30;;;;;;;;;;;19.70;69.70;;;;;;4888121;28;95597;-53
2022/05/21 05:10:02;;;;;;;6.93;5.30;;;19.80;69.70;;;;;;4889172;28;95678;-58
2022/05/21 05:12:35;;;;;;;6.72;4.60;;;19.90;69.50;;;;;;4888237;28;95771;-57
2022/05/21 05:15:08;;;;;;;5.97;4.60;;;20.00;69.40;;;;;;4881641;28;95952;-55
2022/05/21 05:17:40;;;;;;;5.97;4.15;;;20.10;69.30;;;;;;4880830;28;95885;-54
2022/05/21 05:20:12;;;;;;;5.30;4.28;;;20.20;69.10;;;;;;4886484;28;96524;-56
2022/05/21 05:22:43;;;;;;;6.82;4.90;;;20.30;69.00;;;;;;4887783;28;97038;-52
2022/05/21 05:25:14;;;;;;;;;;;20.40;69.00;;;;;;4890313;28;96468;-53
2022/05/21 05:27:48;;;;;;;5.57;4.60;;;20.50;68.80;;;;;;4890226;28;96009;-54
2022/05/21 05:30:21;;;;;;;4.95;4.20;;;20.60;68.80;;;;;;4884592;28;95795;-59
2022/05/21 05:32:52;;;;;;;5.32;4.47;;;20.70;68.60;;;;;;4884691;28;97481;-52
2022/05/21 05:35:23;;;;;;;8.68;6.30;;;20.80;68.40;;;;;;4895016;28;98649;-56
2022/05/21 05:37:53;;;;;;;14.05;5.85;;;20.70;66.60;;;;;;4882944;28;96012;-55
2022/05/21 05:40:24;;;;;;;7.90;5.82;;;20.70;67.00;;;;;;4884866;28;95722;-56
2022/05/21 05:42:56;;;;;;;8.00;6.72;;;20.60;67.00;;;;;;4888394;28;95306;-55
2022/05/21 05:45:32;;;;;;;14.68;7.28;;;20.50;66.70;;;;;;4881272;28;95974;-58
2022/05/21 05:48:04;;;;;;;12.48;6.57;;;20.40;66.80;;;;;;4888077;28;96438;-49
2022/05/21 05:50:39;;;;;;;12.45;7.70;;;20.30;66.70;;;;;;4900242;28;95103;-48
2022/05/21 05:53:13;;;;;;;12.20;7.13;;;20.30;66.80;;;;;;4901122;28;95209;-52
2022/05/21 05:55:47;;;;;;;9.75;7.38;;;20.30;67.10;;;;;;4900041;28;96592;-51
2022/05/21 06:01:14;;;;;;;12.07;8.00;;;20.20;67.20;;;;;;4898020;28;94984;-50
2022/05/21 06:03:48;;;;;;;11.18;7.50;;;20.20;67.30;;;;;;4899890;28;95306;-50
2022/05/21 06:06:22;;;;;;;12.23;7.72;;;20.10;67.40;;;;;;4900094;28;95847;-50
2022/05/21 06:08:55;;;;;;;11.93;8.18;;;20.10;67.60;;;;;;4899382;28;95532;-49
2022/05/21 06:11:27;;;;;;;11.25;7.28;;;20.00;67.50;;;;;;4899428;28;95027;-50
2022/05/21 06:14:00;;;;;;;10.90;7.65;;;20.00;67.40;;;;;;4902490;28;95344;-50
2022/05/21 06:16:33;;;;;;;13.73;8.25;;;20.00;67.80;;;;;;4901373;28;96452;-49
2022/05/21 06:19:06;;;;;;;13.18;8.18;;;19.90;67.80;;;;;;4902318;28;95818;-51
2022/05/21 06:21:39;;;;;;;18.70;9.48;;;19.90;67.70;;;;;;4901324;28;95023;-49
2022/05/21 06:24:11;;;;;;;17.67;10.77;;;19.80;67.90;;;;;;4903126;28;95193;-49
2022/05/21 06:26:44;;;;;;;17.40;11.07;;;19.80;68.00;;;;;;4901949;28;95707;-50
2022/05/21 06:29:18;;;;;;;16.88;10.30;;;19.70;68.00;;;;;;4901123;28;95832;-51
2022/05/21 06:31:49;;;;;;;19.88;11.18;;;19.70;68.20;;;;;;4900777;28;95147;-53
2022/05/21 06:34:21;;;;;;;18.38;12.15;;;19.70;68.10;;;;;;4902093;28;95101;-48
2022/05/21 06:36:54;;;;;;;16.75;10.20;;;19.60;68.30;;;;;;4901204;28;96521;-48
2022/05/21 06:39:24;;;;;;;15.63;11.27;;;19.60;68.30;;;;;;4901328;28;95848;-49
2022/05/21 06:41:56;;;;;;;18.58;10.13;;;19.50;68.30;;;;;;4901650;28;95068;-49
2022/05/21 06:44:30;;;;;;;16.30;11.40;;;19.50;68.40;;;;;;4900524;28;95310;-54
2022/05/21 06:47:02;;;;;;;17.23;10.45;;;19.50;68.70;;;;;;4901543;28;95836;-51
2022/05/21 06:49:35;;;;;;;14.38;9.55;;;19.40;68.80;;;;;;4902178;28;96058;-51
2022/05/21 06:52:08;;;;;;;18.67;10.93;;;19.40;68.80;;;;;;4902580;28;94933;-50
2022/05/21 06:54:44;;;;;;;14.35;9.68;;;19.40;69.00;;;;;;4902549;28;95201;-51
2022/05/21 06:57:15;;;;;;;16.58;10.50;;;19.40;69.00;;;;;;4902595;28;95975;-52
2022/05/21 06:59:48;;;;;;;17.08;10.90;;;19.30;69.00;;;;;;4901354;28;95250;-48
2022/05/21 07:02:25;;;;;;;15.35;10.55;;;19.30;69.10;;;;;;4900494;28;95045;-48
2022/05/21 07:07:48;;;;;;;15.10;9.40;;;19.20;69.50;;;;;;4901759;28;96193;-49
2022/05/21 07:10:24;;;;;;;15.32;9.65;;;19.20;69.50;;;;;;4901637;28;95529;-51
2022/05/21 07:12:56;;;;;;;15.57;10.55;;;19.20;69.50;;;;;;4902234;28;94977;-53
2022/05/21 07:15:29;;;;;;;16.67;10.38;;;19.20;69.50;;;;;;4901397;28;95294;-52
2022/05/21 07:18:03;;;;;;;14.45;9.48;;;19.20;69.50;;;;;;4900477;28;96435;-49
2022/05/21 07:20:36;;;;;;;13.45;9.80;;;19.20;69.50;;;;;;4901076;28;95976;-52
2022/05/21 07:23:08;;;;;;;16.70;10.18;;;19.20;69.50;;;;;;4900769;28;95168;-49
2022/05/21 07:25:42;;;;;;;13.43;8.98;;;19.20;69.50;;;;;;4901140;28;95423;-53
2022/05/21 07:28:16;;;;;;;15.10;10.20;;;19.20;69.30;;;;;;4901207;28;96129;-53
2022/05/21 07:30:48;;;;;;;17.33;10.45;;;19.10;69.60;;;;;;4900691;28;95771;-51
2022/05/21 07:33:24;;;;;;;11.68;9.10;;;19.10;69.80;;;;;;4900636;28;94993;-50
2022/05/21 07:35:55;;;;;;;15.73;9.13;;;19.10;69.70;;;;;;4901437;28;95439;-50
2022/05/21 07:38:28;;;;;;;15.80;9.68;;;19.10;67.70;;;;;;4901618;28;95852;-51
2022/05/21 07:41:00;;;;;;;16.27;9.80;;;19.10;69.90;;;;;;4901400;28;95237;-49
2022/05/21 07:43:33;;;;;;;16.95;10.25;;;19.10;69.80;;;;;;4901267;28;94994;-49
2022/05/21 07:46:07;;;;;;;11.35;8.35;;;19.10;69.90;;;;;;4901323;28;95343;-52
2022/05/21 07:48:46;;;;;;;13.00;8.63;;;19.10;69.90;;;;;;4902003;28;96425;-49
2022/05/21 07:51:21;;;;;;;15.55;8.90;;;19.10;69.90;;;;;;4901673;28;95388;-56
2022/05/21 07:53:56;;;;;;;10.90;8.80;;;19.00;69.90;;;;;;4900911;28;94791;-54
2022/05/21 07:56:30;;;;;;;13.43;9.88;;;19.00;70.10;;;;;;4902266;28;95305;-53
2022/05/21 07:59:04;;;;;;;14.30;9.65;;;19.00;70.20;;;;;;4901631;28;96481;-50
2022/05/21 08:01:38;;;;;;;14.68;8.90;;;18.90;70.20;;;;;;4901206;28;95854;-53
2022/05/21 08:04:10;;;;;;;13.70;9.38;;;18.90;70.20;;;;;;4902147;28;94933;-50
2022/05/21 08:06:43;;;;;;;12.00;7.80;;;18.90;70.40;;;;;;4901833;28;95213;-51
2022/05/21 08:09:19;;;;;;;11.13;8.40;;;18.90;70.50;;;;;;4900774;28;95884;-52
2022/05/21 08:11:51;;;;;;;14.43;8.75;;;18.90;70.60;;;;;;4900328;28;95791;-55
2022/05/21 08:14:23;;;;;;;14.50;9.52;;;18.90;70.60;;;;;;4900850;28;94949;-51
2022/05/21 08:16:57;;;;;;;11.77;8.80;;;18.90;70.60;;;;;;4899679;28;95339;-50
2022/05/21 08:19:30;;;;;;;13.25;9.02;;;18.90;70.70;;;;;;4899943;28;96397;-51
2022/05/21 08:27:44;;;;;;;12.90;8.68;;;18.80;70.90;;;;;;4900904;28;95298;-50
2022/05/21 08:30:15;;;;;;;13.68;9.18;;;18.80;70.90;;;;;;4900735;28;96404;-52
2022/05/21 08:32:47;;;;;;;12.88;8.43;;;18.80;70.90;;;;;;4900278;28;95942;-50
2022/05/21 08:35:18;;;;;;;;;;;18.80;71.00;;;;;;4900207;28;94969;-51
2022/05/21 08:37:49;;;;;;;13.77;9.27;;;18.80;70.90;;;;;;4902263;28;95144;-53
2022/05/21 08:40:22;;;;;;;13.45;9.52;;;18.80;71.00;;;;;;4900228;28;96626;-54
2022/05/21 08:42:59;;;;;;;11.85;8.40;;;18.70;70.90;;;;;;4899963;28;95886;-49
2022/05/21 08:46:15;;;;;;;11.48;8.55;;;18.70;71.00;;;;;;4899768;28;94999;-52
2022/05/21 08:49:04;;;;;;;11.27;9.93;;;18.70;71.20;;;;;;4861660;29;95426;-55
2022/05/21 08:51:58;;;;;;;11.15;8.27;;;18.70;71.20;;;;;;4900765;28;96404;-52
2022/05/21 08:54:38;;;;;;;13.45;9.00;;;18.60;71.30;;;;;;4901260;28;95828;-55
2022/05/21 08:57:25;;;;;;;11.18;8.55;;;18.60;71.20;;;;;;4901492;28;94989;-51
2022/05/21 09:00:12;;;;;;;13.43;9.40;;;18.60;71.30;;;;;;4901127;28;95156;-52
2022/05/21 09:02:46;;;;;;;13.07;8.48;;;18.50;71.30;;;;;;4919036;28;102447;-51
2022/05/21 09:05:23;;;;;;;15.43;10.38;;;18.50;71.30;;;;;;4919225;28;95831;-52
2022/05/21 09:08:23;;;;;;;14.35;9.57;;;18.50;71.20;;;;;;4919325;28;94966;-52
2022/05/21 09:11:03;;;;;;;15.85;10.82;;;18.50;71.30;;;;;;4919413;28;95318;-54
2022/05/21 09:13:46;;;;;;;13.90;10.00;;;18.50;71.30;;;;;;4918251;28;96481;-51
2022/05/21 09:19:14;;;;;;;16.90;9.88;;;18.40;71.30;;;;;;4918232;28;95329;-52
2022/05/21 09:21:46;;;;;;;13.73;9.60;;;18.40;71.30;;;;;;4919171;28;95279;-50
2022/05/21 09:24:38;;;;;;;11.90;8.60;;;18.40;71.30;;;;;;4919053;28;96074;-52
2022/05/21 09:27:32;;;;;;;12.70;9.05;;;18.40;71.30;;;;;;4918785;28;95841;-53
2022/05/21 09:30:29;;;;;;;14.85;9.65;;;18.40;71.20;;;;;;4919236;28;94998;-51
2022/05/21 09:33:23;;;;;;;13.88;9.48;;;18.40;71.30;;;;;;4919177;28;95329;-51
2022/05/21 09:35:59;;;;;;;16.08;10.23;;;18.40;71.80;;;;;;4918783;28;96112;-50
2022/05/21 09:38:48;;;;;;;12.70;8.82;;;18.50;68.00;;;;;;4918267;28;95995;-55
2022/05/21 09:41:32;;;;;;;16.90;10.40;;;18.40;71.30;;;;;;4919177;28;94966;-51
2022/05/21 09:47:16;;;;;;;17.17;10.18;;;18.50;68.40;;;;;;4919753;28;96386;-54
2022/05/21 09:50:10;;;;;;;13.95;9.73;;;18.40;71.60;;;;;;4922519;28;95834;-52
2022/05/21 09:52:47;;;;;;;13.75;9.18;;;18.50;71.80;;;;;;4923390;28;94971;-51
2022/05/21 09:55:29;;;;;;;16.70;10.82;;;18.40;71.50;;;;;;4922540;28;95343;-53
2022/05/21 09:58:13;;;;;;;15.98;9.68;;;18.40;71.50;;;;;;4922481;28;96399;-51
2022/05/21 10:00:56;;;;;;;15.30;9.68;;;18.40;71.50;;;;;;4922160;28;95264;-54
2022/05/21 10:03:39;;;;;;;18.85;10.90;;;18.40;71.60;;;;;;4921517;28;95095;-52
2022/05/21 10:06:34;;;;;;;14.77;10.60;;;18.30;71.40;;;;;;4905690;28;95353;-51
2022/05/21 10:12:23;;;;;;;15.25;9.55;;;18.40;71.30;;;;;;4920941;28;95449;-52
2022/05/21 10:15:13;;;;;;;16.52;11.00;;;18.40;71.20;;;;;;4920579;28;95051;-52
2022/05/21 10:18:00;;;;;;;16.30;11.05;;;18.40;71.10;;;;;;4920786;28;95316;-51
2022/05/21 10:20:44;;;;;;;14.70;10.02;;;18.40;71.00;;;;;;4921315;28;95836;-51
2022/05/21 10:23:28;;;;;;;14.93;10.32;;;18.40;70.90;;;;;;4921166;28;95281;-53
2022/05/21 10:26:08;;;;;;;15.60;10.75;;;18.40;70.90;;;;;;4921196;28;95219;-51
2022/05/21 10:29:04;;;;;;;14.15;10.23;;;18.40;70.70;;;;;;4920942;28;95498;-48
2022/05/21 10:31:39;;;;;;;14.10;10.15;;;18.40;70.50;;;;;;4920841;28;95863;-50
2022/05/21 10:34:39;;;;;;;16.67;9.68;;;18.30;70.40;;;;;;4921083;28;95943;-48
2022/05/21 10:37:19;;;;;;;13.50;9.63;;;18.20;70.40;;;;;;4921625;28;94975;-50
2022/05/21 10:40:07;;;;;;;16.90;10.05;;;18.20;70.50;;;;;;4920494;28;95369;-51
2022/05/21 10:43:08;;;;;;;15.25;10.25;;;18.20;70.50;;;;;;4919391;28;96566;-51
2022/05/21 10:45:52;;;;;;;15.23;9.88;;;18.10;70.50;;;;;;4920305;28;95791;-50
2022/05/21 10:48:42;;;;;;;12.57;9.30;;;18.10;70.30;;;;;;4922479;28;95026;-48
2022/05/21 10:51:31;;;;;;;15.30;10.45;;;18.10;70.20;;;;;;4922253;28;95375;-52
2022/05/21 10:54:02;;;;;;;13.45;9.38;;;18.10;70.10;;;;;;4921070;28;96406;-52
2022/05/21 10:57:28;;;;;;;14.77;10.13;;;18.10;70.20;;;;;;4921647;28;95788;-49
2022/05/21 11:00:16;;;;;;;14.13;10.25;;;18.10;70.10;;;;;;4919652;28;95191;-49
2022/05/21 11:03:07;;;;;;;13.98;10.15;;;18.00;70.70;;;;;;4901798;28;95494;-47
2022/05/21 11:06:09;;;;;;;16.13;9.93;;;18.00;69.90;;;;;;4901589;28;96499;-49
2022/05/21 11:08:43;;;;;;;14.27;9.93;;;18.00;70.00;;;;;;4901779;28;95402;-48
2022/05/21 11:11:37;;;;;;;13.77;9.55;;;18.00;69.90;;;;;;4901806;28;95002;-51
2022/05/21 11:14:28;;;;;;;13.70;9.80;;;18.00;70.10;;;;;;4902046;28;95418;-49
2022/05/21 11:17:54;;;;;;;14.93;10.32;;;18.00;70.30;;;;;;4900069;28;96444;-48
2022/05/21 11:20:38;;;;;;;15.07;10.02;;;18.10;70.00;;;;;;4889368;28;95469;-51
2022/05/21 11:23:27;;;;;;;13.43;9.55;;;18.10;69.90;;;;;;4900984;28;95217;-49
2022/05/21 11:26:31;;;;;;;14.68;10.75;;;18.00;69.90;;;;;;4901785;28;95169;-50
2022/05/21 11:29:25;;;;;;;13.93;9.82;;;18.00;69.90;;;;;;4900572;28;96368;-47
2022/05/21 11:37:59;;;;;;;16.33;10.52;;;17.90;70.10;;;;;;4901806;28;95210;-50
2022/05/21 11:41:24;;;;;;;14.00;10.18;;;17.90;70.20;;;;;;4899059;28;98580;-49
2022/05/21 11:47:10;;;;;;;15.65;9.85;;;17.80;70.50;;;;;;4901818;28;95483;-48
2022/05/21 11:50:03;;;;;;;17.05;10.88;;;17.70;70.60;;;;;;4922119;28;95195;-50
2022/05/21 11:52:36;;;;;;;13.88;10.15;;;17.70;70.70;;;;;;4920131;28;96522;-48
2022/05/21 11:55:11;;;;;;;15.32;9.02;;;17.60;70.70;;;;;;4920065;28;95796;-52
2022/05/21 11:57:53;;;;;;;;;;;17.60;70.80;;;;;;4921614;28;95006;-48
2022/05/21 12:00:24;;;;;;;15.23;9.98;;;17.60;70.70;;;;;;4921290;28;95142;-47
2022/05/21 12:02:58;;;;;;;14.60;9.85;;;17.60;70.60;;;;;;4919634;28;96634;-50
2022/05/21 12:05:45;;;;;;;14.75;9.35;;;17.60;70.50;;;;;;4920574;28;95845;-46
2022/05/21 12:08:34;;;;;;;15.18;10.15;;;17.70;70.60;;;;;;4920864;28;94964;-46
2022/05/21 12:11:07;;;;;;;12.23;9.15;;;17.70;70.50;;;;;;4920275;28;95051;-46
2022/05/21 12:13:52;;;;;;;13.40;9.68;;;17.80;70.20;;;;;;4920201;28;95951;-49
2022/05/21 12:16:26;;;;;;;13.05;9.68;;;17.80;69.90;;;;;;4919879;28;95015;-48
2022/05/21 12:19:01;;;;;;;15.38;9.93;;;17.90;69.80;;;;;;4919876;28;94950;-46
2022/05/21 12:21:38;;;;;;;12.80;9.27;;;17.90;69.80;;;;;;4919851;28;95323;-46
2022/05/21 12:24:29;;;;;;;16.05;11.55;;;17.90;69.80;;;;;;4919526;28;96445;-45
2022/05/21 12:27:21;;;;;;;14.13;9.98;;;17.90;69.70;;;;;;4918974;28;95808;-44
2022/05/21 12:30:00;;;;;;;16.48;10.55;;;17.90;69.60;;;;;;4919082;28;94978;-45
2022/05/21 12:32:33;;;;;;;16.20;10.00;;;17.90;69.80;;;;;;4918272;28;95260;-55
2022/05/21 12:35:31;;;;;;;17.70;9.82;;;17.90;70.60;;;;;;4920334;28;95870;-54
2022/05/21 12:38:29;;;;;;;13.05;9.50;;;18.00;71.30;;;;;;4922540;28;95924;-49
2022/05/21 12:41:13;;;;;;;11.50;8.40;;;18.20;71.20;;;;;;4922848;28;95105;-53
2022/05/21 12:43:52;;;;;;;15.02;9.63;;;18.50;71.10;;;;;;4922956;28;95255;-48
2022/05/21 12:46:32;;;;;;;13.85;9.30;;;18.60;70.70;;;;;;4923488;28;96464;-55
2022/05/21 12:49:10;;;;;;;12.23;8.82;;;18.70;70.60;;;;;;4923519;28;95233;-59
2022/05/21 12:51:48;;;;;;;11.70;8.13;;;18.80;70.50;;;;;;4923903;28;94965;-54
2022/05/21 12:54:24;;;;;;;12.13;8.43;;;18.90;70.50;;;;;;4923620;28;95337;-57
2022/05/21 12:57:11;;;;;;;12.07;7.72;;;18.90;70.30;;;;;;4923812;28;95310;-54
2022/05/21 12:59:45;;;;;;;10.80;8.00;;;19.00;70.40;;;;;;4922687;28;94999;-57
2022/05/21 13:02:22;;;;;;;10.30;7.03;;;19.10;70.20;;;;;;4921659;28;95034;-54
2022/05/21 13:05:01;;;;;;;9.32;7.28;;;19.00;70.20;;;;;;4923109;28;94827;-53
2022/05/21 13:07:44;;;;;;;10.13;7.50;;;19.10;70.40;;;;;;4923250;28;96469;-53
2022/05/21 13:10:25;;;;;;;9.25;6.57;;;19.20;70.00;;;;;;4921563;28;94964;-54
2022/05/21 13:13:08;;;;;;;8.50;6.80;;;19.20;69.90;;;;;;4920731;28;94744;-54
2022/05/21 13:15:46;;;;;;;9.35;6.80;;;19.30;69.70;;;;;;4922791;28;95186;-55
2022/05/21 13:18:57;;;;;;;9.10;6.93;;;19.30;69.80;;;;;;4922626;28;95469;-56
2022/05/21 13:21:35;;;;;;;8.82;7.18;;;19.40;69.60;;;;;;4887215;28;96114;-52
2022/05/21 13:24:34;;;;;;;8.50;6.22;;;19.40;69.60;;;;;;4921384;28;95057;-58
2022/05/21 13:27:22;;;;;;;8.55;6.30;;;19.50;69.50;;;;;;4921382;28;95310;-55
2022/05/21 13:29:56;;;;;;;8.50;6.72;;;19.50;69.50;;;;;;4922581;28;96508;-55
2022/05/21 13:32:33;;;;;;;9.15;7.03;;;19.60;69.60;;;;;;4921261;28;95831;-59
2022/05/21 13:35:21;;;;;;;8.55;6.35;;;19.50;69.40;;;;;;4922840;28;94895;-57
2022/05/21 13:37:52;;;;;;;8.68;6.72;;;19.60;69.30;;;;;;4921313;28;94856;-52
2022/05/21 13:40:30;;;;;;;9.13;6.20;;;19.60;69.30;;;;;;4922007;28;96374;-58
2022/05/21 13:43:08;;;;;;;7.30;6.47;;;19.70;69.20;;;;;;4919930;28;95812;-52
2022/05/21 13:45:52;;;;;;;11.88;7.45;;;19.70;68.30;;;;;;4921456;28;94963;-55
2022/05/21 13:48:33;;;;;;;10.52;8.18;;;19.70;68.10;;;;;;4923852;28;95407;-62
2022/05/21 13:51:05;;;;;;;9.63;6.55;;;19.70;68.50;;;;;;4937591;28;98947;-62
2022/05/21 13:53:40;;;;;;;8.32;6.88;;;19.80;68.60;;;;;;4923022;28;95822;-64
2022/05/21 13:56:38;;;;;;;12.13;7.30;;;19.70;68.70;;;;;;4923378;28;94953;-63
2022/05/21 13:59:20;;;;;;;11.02;7.47;;;19.80;68.80;;;;;;4923109;28;95059;-53
2022/05/21 14:02:21;;;;;;;9.93;6.70;;;19.80;68.80;;;;;;4921757;28;95188;-54
2022/05/21 14:04:56;;;;;;;8.30;7.13;;;19.90;68.80;;;;;;4921409;28;94835;-59
2022/05/21 14:07:37;;;;;;;7.85;7.05;;;19.90;69.00;;;;;;4923001;28;94937;-62
2022/05/21 14:10:12;;;;;;;9.52;7.40;;;20.00;68.80;;;;;;4921423;28;95332;-53
2022/05/21 14:12:55;;;;;;;9.00;7.35;;;20.00;68.80;;;;;;4921400;28;96411;-55
2022/05/21 14:15:45;;;;;;;10.32;7.97;;;20.00;68.60;;;;;;4921308;28;94737;-59